createdAt,value
2023-10-08T00:00:14.106Z,197.15
2023-10-08T00:02:40.566Z,206.40
2023-10-08T00:05:07.888Z,199.63
2023-10-08T00:07:34.295Z,209.38
2023-10-08T00:10:00.676Z,234.40
2023-10-08T00:12:27.135Z,239.25
2023-10-08T00:14:53.518Z,247.00
2023-10-08T00:17:19.981Z,254.95
2023-10-08T00:19:46.479Z,251.10
2023-10-08T00:22:12.896Z,254.35
2023-10-08T00:24:39.285Z,259.15
2023-10-08T00:27:05.925Z,260.73
2023-10-08T00:29:32.412Z,264.85
2023-10-08T00:31:59.151Z,266.70
2023-10-08T00:34:26.044Z,264.52
2023-10-08T00:36:52.409Z,266.35
2023-10-08T00:39:19.228Z,266.85
2023-10-08T00:41:45.936Z,262.13
2023-10-08T00:44:13.345Z,257.17
2023-10-08T00:46:40.265Z,257.05
2023-10-08T00:49:06.825Z,255.65
2023-10-08T00:51:33.233Z,258.13
2023-10-08T00:54:03.897Z,255.85
2023-10-08T00:56:31.113Z,259.10
2023-10-08T00:58:57.537Z,261.85
2023-10-08T01:01:24.116Z,262.17
2023-10-08T01:03:50.736Z,263.80
2023-10-08T01:06:20.582Z,260.67
2023-10-08T01:08:47.581Z,256.02
2023-10-08T01:11:17.638Z,257.35
2023-10-08T01:13:44.150Z,263.20
2023-10-08T01:16:10.583Z,268.42
2023-10-08T01:18:37.213Z,268.65
2023-10-08T01:21:03.761Z,264.90
2023-10-08T01:23:30.157Z,266.10
2023-10-08T01:25:56.654Z,264.70
2023-10-08T01:28:23.028Z,261.52
2023-10-08T01:30:49.428Z,255.40
2023-10-08T01:33:16.037Z,251.48
2023-10-08T01:35:43.184Z,256.60
2023-10-08T01:38:09.582Z,258.27
2023-10-08T01:40:36.092Z,267.48
2023-10-08T01:43:02.577Z,265.83
2023-10-08T01:45:28.985Z,270.08
2023-10-08T01:47:55.525Z,274.77
2023-10-08T01:50:22.284Z,279.60
2023-10-08T01:52:49.545Z,284.77
2023-10-08T01:55:16.045Z,276.67
2023-10-08T01:57:42.449Z,278.80
2023-10-08T02:00:09.178Z,286.17
2023-10-08T02:02:35.739Z,284.63
2023-10-08T02:05:02.226Z,285.77
2023-10-08T02:07:28.680Z,283.75
2023-10-08T02:09:55.180Z,284.40
2023-10-08T02:12:21.563Z,287.20
2023-10-08T02:14:47.942Z,286.05
2023-10-08T02:17:14.500Z,282.88
2023-10-08T02:19:41.014Z,286.35
2023-10-08T02:22:07.422Z,289.75
2023-10-08T02:24:33.906Z,292.60
2023-10-08T02:27:00.310Z,291.40
2023-10-08T02:29:28.204Z,303.20
2023-10-08T02:31:54.744Z,313.88
2023-10-08T02:34:21.477Z,295.13
2023-10-08T02:36:48.158Z,294.42
2023-10-08T02:39:14.975Z,296.33
2023-10-08T02:41:41.882Z,295.85
2023-10-08T02:44:08.741Z,289.55
2023-10-08T02:46:35.205Z,290.90
2023-10-08T02:49:01.595Z,292.17
2023-10-08T02:51:27.964Z,291.05
2023-10-08T02:53:54.457Z,293.33
2023-10-08T02:56:20.977Z,286.50
2023-10-08T02:58:47.372Z,287.20
2023-10-08T03:01:13.971Z,286.02
2023-10-08T03:03:41.300Z,286.73
2023-10-08T03:06:07.868Z,284.85
2023-10-08T03:08:34.312Z,284.13
2023-10-08T03:11:00.684Z,276.90
2023-10-08T03:13:27.095Z,279.50
2023-10-08T03:15:53.607Z,276.85
2023-10-08T03:18:20.076Z,269.42
2023-10-08T03:20:46.559Z,269.80
2023-10-08T03:23:14.771Z,265.38
2023-10-08T03:25:41.561Z,265.27
2023-10-08T03:28:11.214Z,266.08
2023-10-08T03:30:37.633Z,266.05
2023-10-08T03:33:04.291Z,259.02
2023-10-08T03:35:30.784Z,261.92
2023-10-08T03:37:57.338Z,261.00
2023-10-08T03:40:23.764Z,259.85
2023-10-08T03:42:50.180Z,270.27
2023-10-08T03:45:16.720Z,266.48
2023-10-08T03:47:43.169Z,263.13
2023-10-08T03:50:09.750Z,266.38
2023-10-08T03:52:37.026Z,266.42
2023-10-08T03:55:03.664Z,263.98
2023-10-08T03:57:30.046Z,264.98
2023-10-08T03:59:56.531Z,274.90
2023-10-08T04:02:23.020Z,290.35
2023-10-08T04:04:49.608Z,278.88
2023-10-08T04:07:17.259Z,275.58
2023-10-08T04:09:43.639Z,276.02
2023-10-08T04:12:10.055Z,274.90
2023-10-08T04:14:36.512Z,277.23
2023-10-08T04:17:03.017Z,278.02
2023-10-08T04:19:30.976Z,291.02
2023-10-08T04:21:57.683Z,288.63
2023-10-08T04:24:24.704Z,283.30
2023-10-08T04:26:51.156Z,279.80
2023-10-08T04:29:17.807Z,288.65
2023-10-08T04:31:44.329Z,263.92
2023-10-08T04:34:11.190Z,265.30
2023-10-08T04:36:37.734Z,266.23
2023-10-08T04:39:04.119Z,267.67
2023-10-08T04:41:30.556Z,261.42
2023-10-08T04:43:57.247Z,259.95
2023-10-08T04:46:23.700Z,258.70
2023-10-08T04:48:50.123Z,257.88
2023-10-08T04:51:16.794Z,257.45
2023-10-08T04:53:43.194Z,258.73
2023-10-08T04:56:10.103Z,260.38
2023-10-08T04:58:36.703Z,257.00
2023-10-08T05:01:04.246Z,263.20
2023-10-08T05:03:30.811Z,261.98
2023-10-08T05:05:57.375Z,260.83
2023-10-08T05:08:23.802Z,262.27
2023-10-08T05:10:50.185Z,254.90
2023-10-08T05:13:16.610Z,253.70
2023-10-08T05:15:43.393Z,256.88
2023-10-08T05:18:09.971Z,260.65
2023-10-08T05:20:36.472Z,255.13
2023-10-08T05:23:06.766Z,256.60
2023-10-08T05:25:33.222Z,257.30
2023-10-08T05:27:59.731Z,256.27
2023-10-08T05:30:27.493Z,257.27
2023-10-08T05:32:54.269Z,254.75
2023-10-08T05:35:20.989Z,253.90
2023-10-08T05:37:47.426Z,254.15
2023-10-08T05:40:13.841Z,252.25
2023-10-08T05:42:40.266Z,250.40
2023-10-08T05:45:06.850Z,253.93
2023-10-08T05:47:33.439Z,251.23
2023-10-08T05:50:00.556Z,249.15
2023-10-08T05:52:26.970Z,254.30
2023-10-08T05:54:53.554Z,252.25
2023-10-08T05:57:19.949Z,253.30
2023-10-08T05:59:46.885Z,256.13
2023-10-08T06:02:13.270Z,255.93
2023-10-08T06:04:39.722Z,252.25
2023-10-08T06:07:06.111Z,252.07
2023-10-08T06:09:32.487Z,253.07
2023-10-08T06:11:58.994Z,254.95
2023-10-08T06:14:25.488Z,253.40
2023-10-08T06:16:53.989Z,251.68
2023-10-08T06:19:20.468Z,256.08
2023-10-08T06:21:46.870Z,255.68
2023-10-08T06:24:13.264Z,251.90
2023-10-08T06:26:40.202Z,256.38
2023-10-08T06:29:06.593Z,252.77
2023-10-08T06:31:33.018Z,240.73
2023-10-08T06:33:59.651Z,241.35
2023-10-08T06:36:26.077Z,236.80
2023-10-08T06:38:52.501Z,238.43
2023-10-08T06:41:22.963Z,238.45
2023-10-08T06:44:05.594Z,241.65
2023-10-08T06:46:32.445Z,239.38
2023-10-08T06:49:05.792Z,235.88
2023-10-08T06:51:32.503Z,234.65
2023-10-08T06:53:58.999Z,230.93
2023-10-08T06:56:25.458Z,234.95
2023-10-08T06:58:51.885Z,243.30
2023-10-08T07:01:18.446Z,249.53
2023-10-08T07:03:45.051Z,267.58
2023-10-08T07:06:11.568Z,261.70
2023-10-08T07:08:38.001Z,257.35
2023-10-08T07:11:04.514Z,256.15
2023-10-08T07:13:30.922Z,251.10
2023-10-08T07:15:57.916Z,249.63
2023-10-08T07:18:24.381Z,252.23
2023-10-08T07:20:50.855Z,249.52
2023-10-08T07:23:17.300Z,247.40
2023-10-08T07:25:43.694Z,246.57
2023-10-08T07:28:10.092Z,245.13
2023-10-08T07:30:40.207Z,244.70
2023-10-08T07:33:06.851Z,247.02
2023-10-08T07:35:33.415Z,243.65
2023-10-08T07:37:59.888Z,244.47
2023-10-08T07:40:28.805Z,245.90
2023-10-08T07:42:55.207Z,242.32
2023-10-08T07:45:21.725Z,243.98
2023-10-08T07:47:48.666Z,245.55
2023-10-08T07:50:15.422Z,240.98
2023-10-08T07:52:42.665Z,240.60
2023-10-08T07:55:09.154Z,245.73
2023-10-08T07:57:35.572Z,243.75
2023-10-08T08:00:02.061Z,244.73
2023-10-08T08:02:29.319Z,243.48
2023-10-08T08:04:55.742Z,245.48
2023-10-08T08:07:22.397Z,243.95
2023-10-08T08:09:50.538Z,245.70
2023-10-08T08:12:17.344Z,245.98
2023-10-08T08:14:43.784Z,244.88
2023-10-08T08:17:10.193Z,243.77
2023-10-08T08:19:36.592Z,243.55
2023-10-08T08:22:03.056Z,246.32
2023-10-08T08:24:29.443Z,246.02
2023-10-08T08:26:56.389Z,240.85
2023-10-08T08:29:22.862Z,242.23
2023-10-08T08:31:49.279Z,244.93
2023-10-08T08:34:15.746Z,237.00
2023-10-08T08:36:42.277Z,238.15
2023-10-08T08:39:08.660Z,237.35
2023-10-08T08:41:37.933Z,236.85
2023-10-08T08:44:05.099Z,234.82
2023-10-08T08:46:32.908Z,233.98
2023-10-08T08:49:09.305Z,235.48
2023-10-08T08:51:36.331Z,236.60
2023-10-08T08:54:03.392Z,236.25
2023-10-08T08:56:31.030Z,237.30
2023-10-08T08:58:58.732Z,239.18
2023-10-08T09:01:25.169Z,238.98
2023-10-08T09:03:51.813Z,238.02
2023-10-08T09:06:18.397Z,235.77
2023-10-08T09:08:44.833Z,237.10
2023-10-08T09:11:14.636Z,238.75
2023-10-08T09:13:41.036Z,239.98
2023-10-08T09:16:14.638Z,246.48
2023-10-08T09:18:48.603Z,248.13
2023-10-08T09:21:16.257Z,267.85
2023-10-08T09:23:43.975Z,259.58
2023-10-08T09:26:11.072Z,256.55
2023-10-08T09:28:38.248Z,257.00
2023-10-08T09:31:04.681Z,255.38
2023-10-08T09:33:31.334Z,259.08
2023-10-08T09:35:59.353Z,254.02
2023-10-08T09:38:25.948Z,260.58
2023-10-08T09:40:53.124Z,255.57
2023-10-08T09:43:19.848Z,253.98
2023-10-08T09:45:53.169Z,250.38
2023-10-08T09:48:21.556Z,254.10
2023-10-08T09:50:49.267Z,268.33
2023-10-08T09:53:15.784Z,265.02
2023-10-08T09:55:44.660Z,254.38
2023-10-08T09:58:12.909Z,261.95
2023-10-08T10:00:39.425Z,255.00
2023-10-08T10:03:06.412Z,253.05
2023-10-08T10:05:33.668Z,254.85
2023-10-08T10:08:00.094Z,254.18
2023-10-08T10:10:27.414Z,255.63
2023-10-08T10:12:54.031Z,258.33
2023-10-08T10:15:30.647Z,257.17
2023-10-08T10:18:09.042Z,248.38
2023-10-08T10:20:39.954Z,248.30
2023-10-08T10:23:25.246Z,253.48
2023-10-08T10:25:51.636Z,253.35
2023-10-08T10:28:26.937Z,254.35
2023-10-08T10:30:53.557Z,255.68
2023-10-08T10:33:20.433Z,251.95
2023-10-08T10:35:53.352Z,251.70
2023-10-08T10:38:20.226Z,252.50
2023-10-08T10:40:49.386Z,250.00
2023-10-08T10:43:15.848Z,248.13
2023-10-08T10:45:42.469Z,254.13
2023-10-08T10:48:08.968Z,252.52
2023-10-08T10:50:35.490Z,252.48
2023-10-08T10:53:02.825Z,254.50
2023-10-08T10:55:29.270Z,249.27
2023-10-08T10:57:57.361Z,251.88
2023-10-08T11:00:25.024Z,253.90
2023-10-08T11:02:51.453Z,251.63
2023-10-08T11:05:18.044Z,249.13
2023-10-08T11:07:44.438Z,252.07
2023-10-08T11:10:10.903Z,249.10
2023-10-08T11:12:37.449Z,244.77
2023-10-08T11:15:04.053Z,247.57
2023-10-08T11:17:33.032Z,242.25
2023-10-08T11:19:59.503Z,246.88
2023-10-08T11:22:41.447Z,246.35
2023-10-08T11:25:20.432Z,248.27
2023-10-08T11:27:46.823Z,248.45
2023-10-08T11:30:15.628Z,252.48
2023-10-08T11:32:42.349Z,253.27
2023-10-08T11:35:15.404Z,251.15
2023-10-08T11:37:45.715Z,251.80
2023-10-08T11:40:22.740Z,254.70
2023-10-08T11:42:50.178Z,252.57
2023-10-08T11:45:16.549Z,256.30
2023-10-08T11:47:42.986Z,262.58
2023-10-08T11:50:09.632Z,260.27
2023-10-08T11:52:36.009Z,261.55
2023-10-08T11:55:02.476Z,261.70
2023-10-08T11:57:28.924Z,259.85
2023-10-08T11:59:55.576Z,263.58
2023-10-08T12:02:22.672Z,262.95
2023-10-08T12:04:49.716Z,262.05
2023-10-08T12:07:16.540Z,258.05
2023-10-08T12:09:42.917Z,255.43
2023-10-08T12:12:09.354Z,258.05
2023-10-08T12:14:38.578Z,258.50
2023-10-08T12:17:05.595Z,259.77
2023-10-08T12:19:31.997Z,259.27
2023-10-08T12:21:58.414Z,271.88
2023-10-08T12:24:24.819Z,264.40
2023-10-08T12:26:51.240Z,304.63
2023-10-08T12:29:17.659Z,265.95
2023-10-08T12:31:44.423Z,231.63
2023-10-08T12:34:11.468Z,268.73
2023-10-08T12:36:38.270Z,188.65
2023-10-08T12:39:04.846Z,235.05
2023-10-08T12:41:31.325Z,266.60
2023-10-08T12:43:57.745Z,205.52
2023-10-08T12:46:24.244Z,291.42
2023-10-08T12:48:51.973Z,249.23
2023-10-08T12:51:18.444Z,247.77
2023-10-08T12:53:45.143Z,216.85
2023-10-08T12:56:11.679Z,228.45
2023-10-08T12:58:38.068Z,217.85
2023-10-08T13:01:04.575Z,217.38
2023-10-08T13:03:31.247Z,219.30
2023-10-08T13:05:58.360Z,225.90
2023-10-08T13:08:24.845Z,222.38
2023-10-08T13:10:51.323Z,217.63
2023-10-08T13:13:17.709Z,217.70
2023-10-08T13:15:44.131Z,213.45
2023-10-08T13:18:10.733Z,237.15
2023-10-08T13:20:37.338Z,241.15
2023-10-08T13:23:04.265Z,218.50
2023-10-08T13:25:31.086Z,261.70
2023-10-08T13:27:57.526Z,229.77
2023-10-08T13:30:23.976Z,233.82
2023-10-08T13:32:50.568Z,220.70
2023-10-08T13:35:18.362Z,212.70
2023-10-08T13:37:44.768Z,221.57
2023-10-08T13:40:11.403Z,212.60
2023-10-08T13:42:37.764Z,214.45
2023-10-08T13:45:04.444Z,218.70
2023-10-08T13:47:30.946Z,228.27
2023-10-08T13:49:57.372Z,258.30
2023-10-08T13:52:23.752Z,261.73
2023-10-08T13:54:50.168Z,284.45
2023-10-08T13:57:16.590Z,219.02
2023-10-08T13:59:43.044Z,263.83
2023-10-08T14:02:09.754Z,247.68
2023-10-08T14:04:36.359Z,251.05
2023-10-08T14:07:03.040Z,250.63
2023-10-08T14:09:29.529Z,246.52
2023-10-08T14:11:55.988Z,241.77
2023-10-08T14:14:22.398Z,217.13
2023-10-08T14:16:49.578Z,218.43
2023-10-08T14:19:15.970Z,215.20
2023-10-08T14:21:42.688Z,216.40
2023-10-08T14:24:09.228Z,215.35
2023-10-08T14:26:35.698Z,214.85
2023-10-08T14:29:02.126Z,215.48
2023-10-08T14:31:28.562Z,214.23
2023-10-08T14:33:55.281Z,214.02
2023-10-08T14:36:22.108Z,242.27
2023-10-08T14:38:48.550Z,230.57
2023-10-08T14:41:14.955Z,227.75
2023-10-08T14:43:41.337Z,233.10
2023-10-08T14:46:07.820Z,227.98
2023-10-08T14:48:34.493Z,226.00
2023-10-08T14:51:01.676Z,226.43
2023-10-08T14:53:28.209Z,225.02
2023-10-08T14:55:54.783Z,221.43
2023-10-08T14:58:21.193Z,221.30
2023-10-08T15:00:47.623Z,218.25
2023-10-08T15:03:14.269Z,219.30
2023-10-08T15:05:40.972Z,217.90
2023-10-08T15:08:07.486Z,216.52
2023-10-08T15:10:33.933Z,219.07
2023-10-08T15:13:00.308Z,216.80
2023-10-08T15:15:26.801Z,209.80
2023-10-08T15:17:53.342Z,213.13
2023-10-08T15:20:19.900Z,209.45
2023-10-08T15:22:47.415Z,207.57
2023-10-08T15:25:14.329Z,207.10
2023-10-08T15:27:41.268Z,205.35
2023-10-08T15:30:11.428Z,205.38
2023-10-08T15:32:39.067Z,206.13
2023-10-08T15:35:05.734Z,203.30
2023-10-08T15:37:32.187Z,207.25
2023-10-08T15:39:58.600Z,205.07
2023-10-08T15:42:25.022Z,203.98
2023-10-08T15:44:51.528Z,209.23
2023-10-08T15:47:18.014Z,230.77
2023-10-08T15:49:44.378Z,230.80
2023-10-08T15:52:10.895Z,224.45
2023-10-08T15:54:37.343Z,204.15
2023-10-08T15:57:05.412Z,203.13
2023-10-08T15:59:31.935Z,209.35
2023-10-08T16:02:00.419Z,203.15
2023-10-08T16:04:28.040Z,202.60
2023-10-08T16:06:54.532Z,201.57
2023-10-08T16:09:20.986Z,200.75
2023-10-08T16:11:47.450Z,200.73
2023-10-08T16:14:13.885Z,198.30
2023-10-08T16:16:40.340Z,215.73
2023-10-08T16:19:06.711Z,228.35
2023-10-08T16:21:33.188Z,215.55
2023-10-08T16:23:59.603Z,206.02
2023-10-08T16:26:26.320Z,200.95
2023-10-08T16:28:52.855Z,196.85
2023-10-08T16:31:19.259Z,197.23
2023-10-08T16:33:46.107Z,199.68
2023-10-08T16:36:13.252Z,199.45
2023-10-08T16:38:39.702Z,199.02
2023-10-08T16:41:06.116Z,198.18
2023-10-08T16:43:32.553Z,199.73
2023-10-08T16:45:58.978Z,200.25
2023-10-08T16:48:25.568Z,198.45
2023-10-08T16:50:52.413Z,197.93
2023-10-08T16:53:18.916Z,197.82
2023-10-08T16:55:45.348Z,197.80
2023-10-08T16:58:11.766Z,196.75
2023-10-08T17:00:38.585Z,190.03
2023-10-08T17:03:05.174Z,201.73
2023-10-08T17:05:31.789Z,206.00
2023-10-08T17:07:58.211Z,262.38
2023-10-08T17:10:26.821Z,229.95
2023-10-08T17:12:53.330Z,213.52
2023-10-08T17:15:19.920Z,197.32
2023-10-08T17:17:46.473Z,200.02
2023-10-08T17:20:13.040Z,251.52
2023-10-08T17:22:39.447Z,223.10
2023-10-08T17:25:06.120Z,222.52
2023-10-08T17:27:33.304Z,206.65
2023-10-08T17:29:59.802Z,224.75
2023-10-08T17:32:27.169Z,225.20
2023-10-08T17:34:53.945Z,216.65
2023-10-08T17:37:20.325Z,248.52
2023-10-08T17:39:46.829Z,251.43
2023-10-08T17:42:13.484Z,179.98
2023-10-08T17:44:39.950Z,178.10
2023-10-08T17:47:06.344Z,174.07
2023-10-08T17:49:33.911Z,179.13
2023-10-08T17:52:00.342Z,195.45
2023-10-08T17:54:26.757Z,199.65
2023-10-08T17:56:53.215Z,224.82
2023-10-08T17:59:19.628Z,226.93
2023-10-08T18:01:46.047Z,201.07
2023-10-08T18:04:13.145Z,217.43
2023-10-08T18:06:39.702Z,229.52
2023-10-08T18:09:06.150Z,243.52
2023-10-08T18:11:32.620Z,248.68
2023-10-08T18:13:58.989Z,256.73
2023-10-08T18:16:25.432Z,277.63
2023-10-08T18:18:51.896Z,279.95
2023-10-08T18:21:18.465Z,218.73
2023-10-08T18:23:45.460Z,311.92
2023-10-08T18:26:12.586Z,321.42
2023-10-08T18:28:39.121Z,303.42
2023-10-08T18:31:06.040Z,332.33
2023-10-08T18:33:32.674Z,313.83
2023-10-08T18:36:06.094Z,323.45
2023-10-08T18:38:32.600Z,295.38
2023-10-08T18:40:59.756Z,337.92
2023-10-08T18:43:26.143Z,340.30
2023-10-08T18:45:52.511Z,340.90
2023-10-08T18:48:19.013Z,316.63
2023-10-08T18:50:45.513Z,312.40
2023-10-08T18:53:11.925Z,312.02
2023-10-08T18:55:52.700Z,309.98
2023-10-08T18:58:20.058Z,246.82
2023-10-08T19:00:47.025Z,240.13
2023-10-08T19:03:13.485Z,319.17
2023-10-08T19:05:39.920Z,300.13
2023-10-08T19:08:06.609Z,275.00
2023-10-08T19:10:33.035Z,331.55
2023-10-08T19:12:59.418Z,276.63
2023-10-08T19:15:25.972Z,258.73
2023-10-08T19:17:52.452Z,295.48
2023-10-08T19:20:19.007Z,272.77
2023-10-08T19:22:46.896Z,255.98
2023-10-08T19:25:13.445Z,226.98
2023-10-08T19:27:39.828Z,208.35
2023-10-08T19:30:06.596Z,205.15
2023-10-08T19:32:36.369Z,197.68
2023-10-08T19:35:02.970Z,204.45
2023-10-08T19:37:29.601Z,182.27
2023-10-08T19:39:55.985Z,208.97
2023-10-08T19:42:22.376Z,173.82
2023-10-08T19:44:48.854Z,170.82
2023-10-08T19:47:15.262Z,166.20
2023-10-08T19:49:41.661Z,165.88
2023-10-08T19:52:08.240Z,162.40
2023-10-08T19:54:34.620Z,293.42
2023-10-08T19:57:01.074Z,326.23
2023-10-08T19:59:27.651Z,287.52
2023-10-08T20:01:54.062Z,320.90
2023-10-08T20:04:20.685Z,282.50
2023-10-08T20:06:47.397Z,265.92
2023-10-08T20:09:14.236Z,253.68
2023-10-08T20:11:40.889Z,274.58
2023-10-08T20:14:07.355Z,344.40
2023-10-08T20:16:33.784Z,283.25
2023-10-08T20:19:00.236Z,213.80
2023-10-08T20:21:26.741Z,236.43
2023-10-08T20:23:53.152Z,243.73
2023-10-08T20:26:19.583Z,277.95
2023-10-08T20:28:46.009Z,266.08
2023-10-08T20:31:15.522Z,244.15
2023-10-08T20:33:43.069Z,242.05
2023-10-08T20:36:09.713Z,242.48
2023-10-08T20:38:36.251Z,248.05
2023-10-08T20:41:02.815Z,241.65
2023-10-08T20:43:29.403Z,243.35
2023-10-08T20:45:55.892Z,244.27
2023-10-08T20:48:22.398Z,243.13
2023-10-08T20:50:49.081Z,264.50
2023-10-08T20:53:15.463Z,243.02
2023-10-08T20:55:41.848Z,219.82
2023-10-08T20:58:09.024Z,248.43
2023-10-08T21:00:35.976Z,287.30
2023-10-08T21:03:06.801Z,357.65
2023-10-08T21:05:34.838Z,345.80
2023-10-08T21:08:01.317Z,339.88
2023-10-08T21:10:27.695Z,347.98
2023-10-08T21:12:54.828Z,405.95
2023-10-08T21:15:22.065Z,417.75
2023-10-08T21:17:48.894Z,422.35
2023-10-08T21:20:15.977Z,409.37
2023-10-08T21:22:43.138Z,318.13
2023-10-08T21:25:09.611Z,265.23
2023-10-08T21:27:40.027Z,290.23
2023-10-08T21:30:07.066Z,287.92
2023-10-08T21:32:35.051Z,292.58
2023-10-08T21:35:01.545Z,289.65
2023-10-08T21:37:27.985Z,290.83
2023-10-08T21:39:54.372Z,277.25
2023-10-08T21:42:21.353Z,273.17
2023-10-08T21:44:48.037Z,261.80
2023-10-08T21:47:14.460Z,253.25
2023-10-08T21:49:41.394Z,240.73
2023-10-08T21:52:07.838Z,229.25
2023-10-08T21:54:34.319Z,228.73
2023-10-08T21:57:01.064Z,222.25
2023-10-08T21:59:27.479Z,218.20
2023-10-08T22:01:53.847Z,212.93
2023-10-08T22:04:20.369Z,206.23
2023-10-08T22:06:46.759Z,189.95
2023-10-08T22:09:16.553Z,261.75
2023-10-08T22:11:43.510Z,274.70
2023-10-08T22:14:13.049Z,278.77
2023-10-08T22:16:39.836Z,274.80
2023-10-08T22:19:06.458Z,278.25
2023-10-08T22:21:32.864Z,252.48
2023-10-08T22:23:59.334Z,279.02
2023-10-08T22:26:25.884Z,278.58
2023-10-08T22:28:52.339Z,314.55
2023-10-08T22:31:18.821Z,296.42
2023-10-08T22:33:45.368Z,310.58
2023-10-08T22:36:11.862Z,318.08
2023-10-08T22:38:38.256Z,320.90
2023-10-08T22:41:04.693Z,306.60
2023-10-08T22:43:31.111Z,307.33
2023-10-08T22:45:57.783Z,318.08
2023-10-08T22:48:24.419Z,320.08
2023-10-08T22:50:50.917Z,317.42
2023-10-08T22:53:17.760Z,314.08
2023-10-08T22:55:44.190Z,316.15
2023-10-08T22:58:10.583Z,314.30
2023-10-08T23:00:37.113Z,318.00
2023-10-08T23:03:03.897Z,315.58
2023-10-08T23:05:30.460Z,309.55
2023-10-08T23:07:56.857Z,308.42
2023-10-08T23:10:23.449Z,307.20
2023-10-08T23:12:50.111Z,313.13
2023-10-08T23:15:16.574Z,307.40
2023-10-08T23:17:43.153Z,303.95
2023-10-08T23:20:10.025Z,304.70
2023-10-08T23:22:36.407Z,299.38
2023-10-08T23:25:03.584Z,300.42
2023-10-08T23:27:30.027Z,298.40
2023-10-08T23:29:56.490Z,300.33
2023-10-08T23:32:23.072Z,298.02
2023-10-08T23:34:52.532Z,294.88
2023-10-08T23:37:18.904Z,288.90
2023-10-08T23:39:45.332Z,291.38
2023-10-08T23:42:11.715Z,290.00
2023-10-08T23:44:38.084Z,289.00
2023-10-08T23:47:04.537Z,287.65
2023-10-08T23:49:31.362Z,284.48
2023-10-08T23:51:58.198Z,284.27
2023-10-08T23:54:24.715Z,281.95
2023-10-08T23:56:51.664Z,282.95
2023-10-08T23:59:18.496Z,280.77
